Time;durP1;ratioP1;P1;durP2;ratioP2;P2;SDS_P1;SDS_P2;PMS_P1;PMS_P2;Temp;Humidity;BMP_temperature;BMP_pressure;BME280_temperature;BME280_humidity;BME280_pressure;Samples;Min_cycle;Max_cycle;Signal;HPM_P1;HPM_P2
2020/12/19 00:01:33;;;;;;;;;;;0.80;99.90;;;;;;5095650;28;20353;-71
2020/12/19 00:03:59;;;;;;;;;;;0.90;99.90;;;;;;5112539;28;19928;-71
2020/12/19 00:06:25;;;;;;;;;;;0.90;99.90;;;;;;5111941;28;19924;-71
2020/12/19 00:08:52;;;;;;;;;;;0.80;99.90;;;;;;5111749;28;19924;-71
2020/12/19 00:11:18;;;;;;;;;;;0.80;99.90;;;;;;5111931;28;19928;-71
2020/12/19 00:13:44;;;;;;;;;;;0.70;99.90;;;;;;5112612;28;19932;-71
2020/12/19 00:16:13;;;;;;;;;;;0.70;99.90;;;;;;5111923;28;19924;-71
2020/12/19 00:18:39;;;;;;;;;;;0.70;99.90;;;;;;5109310;28;19924;-71
2020/12/19 00:21:05;;;;;;;;;;;0.70;99.90;;;;;;5111929;28;19924;-71
2020/12/19 00:23:31;;;;;;;;;;;0.70;99.90;;;;;;5111763;28;19931;-71
2020/12/19 00:25:58;;;;;;;;;;;0.70;99.90;;;;;;5111996;27;19933;-71
2020/12/19 00:28:24;;;;;;;;;;;0.70;99.90;;;;;;5111933;28;19935;-71
2020/12/19 00:30:50;;;;;;;;;;;0.60;99.90;;;;;;5113044;28;19923;-71
2020/12/19 00:33:16;;;;;;;;;;;0.60;99.90;;;;;;5112471;28;19943;-71
2020/12/19 00:35:42;;;;;;;;;;;0.60;99.90;;;;;;5112562;28;19927;-71
2020/12/19 00:38:08;;;;;;;;;;;0.60;99.90;;;;;;5113622;28;20453;-71
2020/12/19 00:40:34;;;;;;;;;;;0.50;99.90;;;;;;5113248;28;19923;-72
2020/12/19 00:43:00;;;;;;;;;;;0.50;99.90;;;;;;5113358;28;19928;-71
2020/12/19 00:45:27;;;;;;;;;;;0.50;99.90;;;;;;5113387;28;19924;-71
2020/12/19 00:47:53;;;;;;;;;;;0.50;99.90;;;;;;5113312;28;19978;-71
2020/12/19 00:50:19;;;;;;;;;;;0.50;99.90;;;;;;5112147;28;19924;-72
2020/12/19 00:52:45;;;;;;;;;;;0.50;99.90;;;;;;5111948;28;19924;-71
2020/12/19 00:55:11;;;;;;;;;;;0.50;99.90;;;;;;5112289;28;19931;-71
2020/12/19 00:57:37;;;;;;;;;;;0.40;99.90;;;;;;5112603;28;19924;-71
2020/12/19 01:00:05;;;;;;;;;;;0.40;99.90;;;;;;5112625;28;19923;-71
2020/12/19 01:02:34;;;;;;;;;;;0.40;99.90;;;;;;5112923;28;19924;-71
2020/12/19 01:05:00;;;;;;;;;;;0.40;99.90;;;;;;5096917;28;19924;-71
2020/12/19 01:07:26;;;;;;;;;;;0.40;99.90;;;;;;5092711;28;19924;-70
2020/12/19 01:09:52;;;;;;;;;;;0.40;99.90;;;;;;5092628;28;19931;-71
2020/12/19 01:12:18;;;;;;;;;;;0.40;99.90;;;;;;5092624;28;20010;-71
2020/12/19 01:14:44;;;;;;;;;;;0.40;99.90;;;;;;5093839;28;19939;-72
2020/12/19 01:17:11;;;;;;;;;;;0.40;99.90;;;;;;5112916;28;19924;-71
2020/12/19 01:19:37;;;;;;;;;;;0.40;99.90;;;;;;5113115;28;19930;-72
2020/12/19 01:22:03;;;;;;;;;;;0.40;99.90;;;;;;5112701;28;19928;-70
2020/12/19 01:24:29;;;;;;;;;;;0.40;99.90;;;;;;5112700;28;20449;-71
2020/12/19 01:26:55;;;;;;;;;;;0.40;99.90;;;;;;5112465;28;19923;-70
2020/12/19 01:29:21;;;;;;;;;;;0.30;99.90;;;;;;5112761;28;20285;-69
2020/12/19 01:31:47;;;;;;;;;;;0.30;99.90;;;;;;5108064;28;19930;-72
2020/12/19 01:34:14;;;;;;;;;;;0.30;99.90;;;;;;5092025;28;19925;-70
2020/12/19 01:36:41;;;;;;;;;;;0.30;99.90;;;;;;5092370;28;19924;-70
2020/12/19 01:39:08;;;;;;;;;;;0.30;99.90;;;;;;5092565;28;19927;-70
2020/12/19 01:41:34;;;;;;;;;;;0.30;99.90;;;;;;5092123;28;20370;-71
2020/12/19 01:44:00;;;;;;;;;;;0.20;99.90;;;;;;5092055;28;19924;-70
2020/12/19 01:46:27;;;;;;;;;;;0.20;99.90;;;;;;5095781;28;20292;-70
2020/12/19 01:48:53;;;;;;;;;;;0.20;99.90;;;;;;5112746;28;19969;-71
2020/12/19 01:51:20;;;;;;;;;;;0.20;99.90;;;;;;5112609;28;19924;-71
2020/12/19 01:53:46;;;;;;;;;;;0.20;99.90;;;;;;5115046;28;19924;-71
2020/12/19 01:56:17;;;;;;;;;;;0.20;99.90;;;;;;5116804;28;20420;-71
2020/12/19 01:58:43;;;;;;;;;;;0.20;99.90;;;;;;5117029;28;19928;-70
2020/12/19 02:01:09;;;;;;;;;;;0.10;99.90;;;;;;5101896;28;19924;-71
2020/12/19 02:03:35;;;;;;;;;;;0.10;99.90;;;;;;5095416;28;19979;-71
2020/12/19 02:06:02;;;;;;;;;;;0.10;99.90;;;;;;5096153;28;19924;-71
2020/12/19 02:08:29;;;;;;;;;;;0.10;99.90;;;;;;5095942;28;19924;-71
2020/12/19 02:10:55;;;;;;;;;;;1.40;99.90;;;;;;5095273;28;19931;-71
2020/12/19 02:13:21;;;;;;;;;;;0.10;99.90;;;;;;5095669;28;19928;-71
2020/12/19 02:15:47;;;;;;;;;;;0.00;99.90;;;;;;5095043;28;20346;-71
2020/12/19 02:18:13;;;;;;;;;;;0.00;99.90;;;;;;5096019;28;19928;-71
2020/12/19 02:20:39;;;;;;;;;;;0.00;99.90;;;;;;5096305;28;20400;-71
2020/12/19 02:23:06;;;;;;;;;;;0.00;99.90;;;;;;5095636;28;19924;-70
2020/12/19 02:25:33;;;;;;;;;;;0.10;99.90;;;;;;5095640;28;20380;-71
2020/12/19 02:28:01;;;;;;;;;;;0.10;99.90;;;;;;5098604;28;19931;-71
2020/12/19 02:30:27;;;;;;;;;;;0.00;99.90;;;;;;5115995;28;19924;-71
2020/12/19 02:32:53;;;;;;;;;;;0.10;99.90;;;;;;5115901;28;20647;-71
2020/12/19 02:35:19;;;;;;;;;;;0.00;99.90;;;;;;5115700;28;19924;-71
2020/12/19 02:37:45;;;;;;;;;;;0.00;99.90;;;;;;5115785;28;19924;-71
2020/12/19 02:40:11;;;;;;;;;;;0.10;99.90;;;;;;5115633;28;19931;-71
2020/12/19 02:42:37;;;;;;;;;;;0.00;99.90;;;;;;5113493;28;19923;-71
2020/12/19 02:45:03;;;;;;;;;;;0.10;99.90;;;;;;5095218;28;19928;-71
2020/12/19 02:47:29;;;;;;;;;;;0.10;99.90;;;;;;5094963;28;19931;-71
2020/12/19 02:49:55;;;;;;;;;;;0.10;99.90;;;;;;5094985;28;19928;-71
2020/12/19 02:52:21;;;;;;;;;;;0.10;99.90;;;;;;5095482;28;19924;-71
2020/12/19 02:54:47;;;;;;;;;;;0.40;99.90;;;;;;5097741;28;19977;-71
2020/12/19 02:57:13;;;;;;;;;;;0.10;99.90;;;;;;5115728;28;20410;-71
2020/12/19 02:59:40;;;;;;;;;;;0.00;99.90;;;;;;5115541;28;19934;-71
2020/12/19 03:02:06;;;;;;;;;;;0.10;99.90;;;;;;5115098;28;19924;-71
2020/12/19 03:04:32;;;;;;;;;;;0.10;99.90;;;;;;5115014;28;19930;-71
2020/12/19 03:06:58;;;;;;;;;;;0.10;99.90;;;;;;5114954;28;19924;-71
2020/12/19 03:09:24;;;;;;;;;;;0.00;99.90;;;;;;5115034;28;19924;-70
2020/12/19 03:11:50;;;;;;;;;;;0.00;99.90;;;;;;5115408;28;19924;-71
2020/12/19 03:14:16;;;;;;;;;;;0.00;99.90;;;;;;5115043;28;20308;-71
2020/12/19 03:16:43;;;;;;;;;;;0.60;99.90;;;;;;5114918;28;19928;-71
2020/12/19 03:19:09;;;;;;;;;;;-0.10;99.90;;;;;;5114570;28;19924;-71
2020/12/19 03:21:35;;;;;;;;;;;-0.10;99.90;;;;;;5110192;28;19978;-71
2020/12/19 03:24:01;;;;;;;;;;;0.00;99.90;;;;;;5094090;28;20392;-71
2020/12/19 03:26:27;;;;;;;;;;;-0.10;99.90;;;;;;5094342;28;19932;-71
2020/12/19 03:28:53;;;;;;;;;;;-0.20;99.90;;;;;;5094542;28;19946;-71
2020/12/19 03:31:19;;;;;;;;;;;-0.20;99.90;;;;;;5094107;28;19932;-71
2020/12/19 03:33:45;;;;;;;;;;;-0.20;99.90;;;;;;5093364;28;19931;-71
2020/12/19 03:36:11;;;;;;;;;;;-0.30;99.90;;;;;;5096886;28;20410;-71
2020/12/19 03:38:37;;;;;;;;;;;-0.30;99.90;;;;;;5114479;28;19952;-71
2020/12/19 03:41:03;;;;;;;;;;;-0.40;99.90;;;;;;5114357;28;19927;-71
2020/12/19 03:43:29;;;;;;;;;;;-0.30;99.90;;;;;;5114195;28;20300;-70
2020/12/19 03:45:55;;;;;;;;;;;-0.30;99.90;;;;;;5101191;28;19931;-71
2020/12/19 03:48:22;;;;;;;;;;;-0.30;99.90;;;;;;5093888;28;19924;-71
2020/12/19 03:50:48;;;;;;;;;;;-0.30;99.90;;;;;;5106808;28;19924;-71
2020/12/19 03:53:14;;;;;;;;;;;-0.20;99.90;;;;;;5114084;28;19927;-71
2020/12/19 03:55:40;;;;;;;;;;;-0.20;99.90;;;;;;5114422;28;19924;-70
2020/12/19 03:58:06;;;;;;;;;;;-0.20;99.90;;;;;;5114395;28;20392;-71
2020/12/19 04:00:32;;;;;;;;;;;-0.20;99.90;;;;;;5114279;28;19923;-71
2020/12/19 04:02:58;;;;;;;;;;;-0.20;99.90;;;;;;5113912;28;20411;-71
2020/12/19 04:05:24;;;;;;;;;;;-0.20;99.90;;;;;;5113743;28;19927;-71
2020/12/19 04:07:51;;;;;;;;;;;-0.20;99.90;;;;;;5113986;28;19923;-71
2020/12/19 04:10:17;;;;;;;;;;;-0.20;99.90;;;;;;5114165;28;19924;-71
2020/12/19 04:12:43;;;;;;;;;;;-0.10;99.90;;;;;;5113704;28;19935;-71
2020/12/19 04:15:10;;;;;;;;;;;-0.10;99.90;;;;;;5113305;28;20394;-71
2020/12/19 04:17:36;;;;;;;;;;;-0.10;99.90;;;;;;5113550;28;19924;-70
2020/12/19 04:20:03;;;;;;;;;;;-0.10;99.90;;;;;;5102739;28;19939;-71
2020/12/19 04:22:31;;;;;;;;;;;-0.10;99.90;;;;;;5093244;28;19928;-71
2020/12/19 04:24:58;;;;;;;;;;;-0.10;99.90;;;;;;5094642;28;19931;-71
2020/12/19 04:27:24;;;;;;;;;;;-0.10;99.90;;;;;;5093363;28;19935;-70
2020/12/19 04:29:50;;;;;;;;;;;-0.10;99.90;;;;;;5093317;28;19923;-71
2020/12/19 04:32:16;;;;;;;;;;;-0.10;99.90;;;;;;5092888;28;20377;-71
2020/12/19 04:34:42;;;;;;;;;;;-0.10;99.90;;;;;;5095005;28;19928;-71
2020/12/19 04:37:08;;;;;;;;;;;-0.10;99.90;;;;;;5113296;28;19924;-70
2020/12/19 04:39:34;;;;;;;;;;;-0.10;99.90;;;;;;5113299;28;19931;-71
2020/12/19 04:42:01;;;;;;;;;;;-0.10;99.90;;;;;;5113465;28;19928;-71
2020/12/19 04:44:27;;;;;;;;;;;-0.10;99.90;;;;;;5113008;28;19924;-71
2020/12/19 04:46:53;;;;;;;;;;;-0.20;99.90;;;;;;5113201;28;19935;-71
2020/12/19 04:49:19;;;;;;;;;;;-0.20;99.90;;;;;;5113240;28;19924;-71
2020/12/19 04:51:46;;;;;;;;;;;-0.10;99.90;;;;;;5113203;28;19924;-71
2020/12/19 04:54:12;;;;;;;;;;;-0.20;99.90;;;;;;5113173;28;19923;-71
2020/12/19 04:56:38;;;;;;;;;;;-0.10;99.90;;;;;;5113370;28;20376;-71
2020/12/19 04:59:05;;;;;;;;;;;-0.10;99.90;;;;;;5112057;28;19931;-71
2020/12/19 05:01:31;;;;;;;;;;;-0.10;99.90;;;;;;5092490;28;20373;-72
2020/12/19 05:03:57;;;;;;;;;;;-0.10;99.90;;;;;;5100713;28;19973;-71
2020/12/19 05:06:25;;;;;;;;;;;-0.10;99.90;;;;;;5092963;28;20381;-71
2020/12/19 05:08:51;;;;;;;;;;;-0.10;99.90;;;;;;5092560;28;19924;-71
2020/12/19 05:11:17;;;;;;;;;;;-0.10;99.90;;;;;;5092652;28;19924;-71
2020/12/19 05:13:44;;;;;;;;;;;-0.10;99.90;;;;;;5092485;28;19928;-72
2020/12/19 05:16:11;;;;;;;;;;;-0.10;99.90;;;;;;5092585;28;19924;-73
2020/12/19 05:18:37;;;;;;;;;;;-0.10;99.90;;;;;;5092479;28;19925;-73
2020/12/19 05:21:04;;;;;;;;;;;-0.10;99.90;;;;;;5092778;28;19928;-72
2020/12/19 05:23:30;;;;;;;;;;;-0.20;99.90;;;;;;5092417;28;19968;-72
2020/12/19 05:25:56;;;;;;;;;;;-0.10;99.90;;;;;;5092860;28;19978;-72
2020/12/19 05:28:22;;;;;;;;;;;-0.20;99.90;;;;;;5092563;28;19993;-72
2020/12/19 05:30:49;;;;;;;;;;;-0.20;99.90;;;;;;5092215;28;19924;-72
2020/12/19 05:33:16;;;;;;;;;;;-0.20;99.90;;;;;;5110802;28;19927;-72
2020/12/19 05:35:42;;;;;;;;;;;-0.10;99.90;;;;;;5112847;28;19973;-72
2020/12/19 05:38:08;;;;;;;;;;;-0.10;99.90;;;;;;5112854;28;19928;-72
2020/12/19 05:40:34;;;;;;;;;;;-0.10;99.90;;;;;;5112728;28;19981;-72
2020/12/19 05:43:00;;;;;;;;;;;-0.20;99.90;;;;;;5112530;28;20384;-72
2020/12/19 05:45:27;;;;;;;;;;;-0.10;99.90;;;;;;5099586;28;19924;-69
2020/12/19 05:47:53;;;;;;;;;;;-0.20;99.90;;;;;;5092232;28;19947;-72
2020/12/19 05:50:21;;;;;;;;;;;-0.20;99.90;;;;;;5092197;28;19924;-72
2020/12/19 05:52:47;;;;;;;;;;;-0.20;99.90;;;;;;5092051;28;19931;-72
2020/12/19 05:55:14;;;;;;;;;;;-0.20;99.90;;;;;;5092076;28;19928;-72
2020/12/19 05:57:41;;;;;;;;;;;-0.20;99.90;;;;;;5092004;28;20019;-72
2020/12/19 06:00:08;;;;;;;;;;;-0.20;99.90;;;;;;5091708;28;19935;-72
2020/12/19 06:02:35;;;;;;;;;;;-0.20;99.90;;;;;;5091846;28;19976;-72
2020/12/19 06:05:01;;;;;;;;;;;-0.20;99.90;;;;;;5092040;28;19924;-72
2020/12/19 06:07:30;;;;;;;;;;;-0.10;99.90;;;;;;5092208;28;20041;-72
2020/12/19 06:09:56;;;;;;;;;;;-0.10;99.90;;;;;;5103348;28;19924;-72
2020/12/19 06:12:27;;;;;;;;;;;-0.10;99.90;;;;;;5109802;28;19924;-72
2020/12/19 06:14:55;;;;;;;;;;;0.00;99.90;;;;;;5091754;28;20095;-72
2020/12/19 06:17:27;;;;;;;;;;;-0.10;99.90;;;;;;5092246;28;19925;-72
2020/12/19 06:19:54;;;;;;;;;;;-0.10;99.90;;;;;;5092009;28;19932;-72
2020/12/19 06:22:27;;;;;;;;;;;-0.10;99.90;;;;;;5091567;28;20377;-72
2020/12/19 06:24:54;;;;;;;;;;;0.00;99.90;;;;;;5091854;28;19934;-72
2020/12/19 06:27:40;;;;;;;;;;;0.00;99.90;;;;;;5091880;28;19931;-71
2020/12/19 06:30:06;;;;;;;;;;;-0.10;99.90;;;;;;5091701;28;20289;-72
2020/12/19 06:32:32;;;;;;;;;;;0.00;99.90;;;;;;5091610;28;19931;-72
2020/12/19 06:34:59;;;;;;;;;;;0.00;99.90;;;;;;5091711;28;19930;-72
2020/12/19 06:37:25;;;;;;;;;;;0.00;99.90;;;;;;5091527;28;19924;-72
2020/12/19 06:40:12;;;;;;;;;;;0.00;99.90;;;;;;5093849;28;19941;-72
2020/12/19 06:42:38;;;;;;;;;;;0.00;99.90;;;;;;5114295;28;20304;-72
2020/12/19 06:45:22;;;;;;;;;;;0.00;99.90;;;;;;5114844;28;19934;-71
2020/12/19 06:47:48;;;;;;;;;;;0.00;99.90;;;;;;5115193;28;19923;-72
2020/12/19 06:50:14;;;;;;;;;;;0.00;99.90;;;;;;5115022;28;19951;-72
2020/12/19 06:52:51;;;;;;;;;;;0.00;99.90;;;;;;5115104;28;20376;-72
2020/12/19 06:55:18;;;;;;;;;;;0.00;99.90;;;;;;5114246;28;19973;-72
2020/12/19 06:57:49;;;;;;;;;;;0.00;99.90;;;;;;5114816;28;19932;-72
2020/12/19 07:00:16;;;;;;;;;;;0.10;99.90;;;;;;5114377;28;19969;-72
2020/12/19 07:02:47;;;;;;;;;;;0.10;99.90;;;;;;5114371;28;19928;-72
2020/12/19 07:05:18;;;;;;;;;;;0.10;99.90;;;;;;5100896;28;20341;-72
2020/12/19 07:07:44;;;;;;;;;;;0.10;99.90;;;;;;5094863;28;19973;-72
2020/12/19 07:10:10;;;;;;;;;;;0.10;99.90;;;;;;5108508;28;20342;-72
2020/12/19 07:12:38;;;;;;;;;;;0.20;99.90;;;;;;5115057;28;19924;-71
2020/12/19 07:15:05;;;;;;;;;;;0.20;99.90;;;;;;5115023;28;19970;-72
2020/12/19 07:17:42;;;;;;;;;;;0.20;99.90;;;;;;5115282;28;19925;-72
2020/12/19 07:20:08;;;;;;;;;;;0.20;99.90;;;;;;5115061;28;19927;-72
2020/12/19 07:22:34;;;;;;;;;;;0.20;99.90;;;;;;5114790;28;19972;-72
2020/12/19 07:25:02;;;;;;;;;;;0.20;99.90;;;;;;5114659;28;20273;-72
2020/12/19 07:27:28;;;;;;;;;;;0.20;99.90;;;;;;5114755;28;19985;-72
2020/12/19 07:29:59;;;;;;;;;;;0.30;99.90;;;;;;5114189;28;20327;-72
2020/12/19 07:32:25;;;;;;;;;;;0.30;99.90;;;;;;5114680;28;19924;-72
2020/12/19 07:34:52;;;;;;;;;;;0.30;99.90;;;;;;5114843;28;19924;-72
2020/12/19 07:37:21;;;;;;;;;;;0.40;99.90;;;;;;5109049;28;20381;-72
2020/12/19 07:39:47;;;;;;;;;;;0.40;99.90;;;;;;5093921;28;19977;-72
2020/12/19 07:42:13;;;;;;;;;;;0.40;99.90;;;;;;5093900;28;19991;-72
2020/12/19 07:44:39;;;;;;;;;;;0.50;99.90;;;;;;5094194;28;19924;-72
2020/12/19 07:47:07;;;;;;;;;;;0.50;99.90;;;;;;5094310;28;19924;-71
2020/12/19 07:49:34;;;;;;;;;;;0.60;99.90;;;;;;5093995;28;19924;-71
2020/12/19 07:52:18;;;;;;;;;;;0.70;99.90;;;;;;5098267;28;19977;-72
2020/12/19 07:54:54;;;;;;;;;;;0.80;99.90;;;;;;5114183;28;19927;-71
2020/12/19 07:57:20;;;;;;;;;;;1.00;99.90;;;;;;5114549;28;19923;-73
2020/12/19 07:59:46;;;;;;;;;;;1.30;99.90;;;;;;5114426;28;19927;-71
2020/12/19 08:02:14;;;;;;;;;;;1.40;99.90;;;;;;5114093;28;19924;-70
2020/12/19 08:04:40;;;;;;;;;;;1.70;99.90;;;;;;5113799;28;19923;-71
2020/12/19 08:07:09;;;;;;;;;;;1.80;99.90;;;;;;5113739;28;19924;-72
2020/12/19 08:09:35;;;;;;;;;;;2.10;99.90;;;;;;5114643;28;19924;-73
2020/12/19 08:12:01;;;;;;;;;;;2.50;99.90;;;;;;5113815;28;19923;-71
2020/12/19 08:14:28;;;;;;;;;;;3.20;99.90;;;;;;5113882;28;19985;-70
2020/12/19 08:16:54;;;;;;;;;;;3.60;99.90;;;;;;5113908;28;19948;-70
2020/12/19 08:19:24;;;;;;;;;;;4.00;99.90;;;;;;5105681;28;19924;-70
2020/12/19 08:21:58;;;;;;;;;;;4.40;99.90;;;;;;5093280;28;19931;-71
2020/12/19 08:24:24;;;;;;;;;;;4.90;99.90;;;;;;5093241;28;19928;-74
2020/12/19 08:26:50;;;;;;;;;;;5.40;99.90;;;;;;5096230;28;20014;-71
2020/12/19 08:29:16;;;;;;;;;;;5.80;99.90;;;;;;5108195;28;19939;-69
2020/12/19 08:31:42;;;;;;;;;;;6.20;99.90;;;;;;5093158;28;19928;-72
2020/12/19 08:34:10;;;;;;;;;;;6.70;99.90;;;;;;5093039;28;19924;-71
2020/12/19 08:36:45;;;;;;;;;;;7.00;99.90;;;;;;5092991;28;19977;-69
2020/12/19 08:39:11;;;;;;;;;;;7.10;99.90;;;;;;5094519;28;19928;-71
2020/12/19 08:41:37;;;;;;;;;;;7.30;99.90;;;;;;5092880;28;19924;-71
2020/12/19 08:44:03;;;;;;;;;;;7.30;99.90;;;;;;5111610;28;19928;-69
2020/12/19 08:46:30;;;;;;;;;;;7.70;99.90;;;;;;5113421;28;19923;-69
2020/12/19 08:48:58;;;;;;;;;;;8.00;99.90;;;;;;5113203;28;19924;-68
2020/12/19 08:51:24;;;;;;;;;;;7.90;99.90;;;;;;5112998;28;19939;-68
2020/12/19 08:53:53;;;;;;;;;;;7.90;99.90;;;;;;5113218;28;20320;-68
2020/12/19 08:56:25;;;;;;;;;;;8.20;99.90;;;;;;5113048;28;19945;-67
2020/12/19 08:58:54;;;;;;;;;;;8.00;99.90;;;;;;5096625;28;20365;-68
2020/12/19 09:01:21;;;;;;;;;;;7.80;99.90;;;;;;5092338;28;19977;-69
2020/12/19 09:03:47;;;;;;;;;;;8.30;99.90;;;;;;5092452;28;19924;-68
2020/12/19 09:06:13;;;;;;;;;;;8.90;99.90;;;;;;5092849;28;19931;-68
2020/12/19 09:08:40;;;;;;;;;;;9.10;99.90;;;;;;5092631;28;19930;-68
2020/12/19 09:11:08;;;;;;;;;;;9.80;99.90;;;;;;5092363;28;19924;-68
2020/12/19 09:13:34;;;;;;;;;;;10.70;99.90;;;;;;5108405;28;19928;-69
2020/12/19 09:16:04;;;;;;;;;;;11.20;95.40;;;;;;5112934;28;19930;-71
2020/12/19 09:18:31;;;;;;;;;;;10.80;93.90;;;;;;5112782;28;20380;-72
2020/12/19 09:20:58;;;;;;;;;;;10.70;95.20;;;;;;5113167;28;19923;-71
2020/12/19 09:23:25;;;;;;;;;;;10.40;98.20;;;;;;5112707;28;19969;-71
2020/12/19 09:25:51;;;;;;;;;;;10.30;96.90;;;;;;5106221;28;20014;-72
2020/12/19 09:28:18;;;;;;;;;;;10.50;97.40;;;;;;5092562;28;19931;-71
2020/12/19 09:30:44;;;;;;;;;;;10.80;96.90;;;;;;5092366;28;19935;-71
2020/12/19 09:33:11;;;;;;;;;;;11.50;93.30;;;;;;5092236;28;19969;-69
2020/12/19 09:35:37;;;;;;;;;;;11.90;91.60;;;;;;5092404;28;19970;-73
2020/12/19 09:38:03;;;;;;;;;;;11.80;90.60;;;;;;5092953;28;19924;-72
2020/12/19 09:40:30;;;;;;;;;;;11.40;91.80;;;;;;5092167;28;20441;-73
2020/12/19 09:42:56;;;;;;;;;;;11.20;92.80;;;;;;5092083;28;19927;-71
2020/12/19 09:45:23;;;;;;;;;;;11.50;93.50;;;;;;5092066;28;19931;-68
2020/12/19 09:47:51;;;;;;;;;;;12.10;90.50;;;;;;5092380;28;20011;-67
2020/12/19 09:50:17;;;;;;;;;;;12.10;90.20;;;;;;5092046;28;19931;-68
2020/12/19 09:52:43;;;;;;;;;;;11.70;89.60;;;;;;5106803;28;19924;-68
2020/12/19 09:55:09;;;;;;;;;;;11.50;91.70;;;;;;5112401;28;20285;-70
2020/12/19 09:57:35;;;;;;;;;;;12.00;90.50;;;;;;5112381;28;19984;-69
2020/12/19 10:00:03;;;;;;;;;;;12.30;89.20;;;;;;5112697;28;19956;-72
2020/12/19 10:02:30;;;;;;;;;;;12.10;88.50;;;;;;5111517;28;20396;-73
2020/12/19 10:04:56;;;;;;;;;;;12.40;87.90;;;;;;5112507;28;20062;-72
2020/12/19 10:07:22;;;;;;;;;;;12.40;87.00;;;;;;5112445;28;19973;-71
2020/12/19 10:09:48;;;;;;;;;;;11.90;88.40;;;;;;5103231;28;19924;-69
2020/12/19 10:12:14;;;;;;;;;;;11.80;90.00;;;;;;5102854;28;19934;-69
2020/12/19 10:14:40;;;;;;;;;;;11.70;91.60;;;;;;5114715;27;19924;-69
2020/12/19 10:17:06;;;;;;;;;;;12.20;89.80;;;;;;5116581;27;19923;-69
2020/12/19 10:19:33;;;;;;;;;;;12.90;85.80;;;;;;5116366;28;20300;-69
2020/12/19 10:21:59;;;;;;;;;;;13.30;83.80;;;;;;5116255;28;19924;-69
2020/12/19 10:24:25;;;;;;;;;;;13.50;80.80;;;;;;5115755;28;19946;-69
2020/12/19 10:26:51;;;;;;;;;;;14.20;80.20;;;;;;5115879;28;20310;-69
2020/12/19 10:29:17;;;;;;;;;;;14.60;76.20;;;;;;5116190;28;19950;-68
2020/12/19 10:31:43;;;;;;;;;;;14.30;75.20;;;;;;5116001;28;19945;-68
2020/12/19 10:34:09;;;;;;;;;;;14.00;76.80;;;;;;5115779;28;19938;-68
2020/12/19 10:36:36;;;;;;;;;;;13.90;75.50;;;;;;5115864;28;19924;-68
2020/12/19 10:39:02;;;;;;;;;;;13.00;78.40;;;;;;5115785;28;19924;-69
2020/12/19 10:41:28;;;;;;;;;;;12.80;81.10;;;;;;5115900;28;20369;-69
2020/12/19 10:43:54;;;;;;;;;;;12.60;84.80;;;;;;5115757;28;19924;-69
2020/12/19 10:46:21;;;;;;;;;;;13.20;82.70;;;;;;5115899;28;20303;-69
2020/12/19 10:48:47;;;;;;;;;;;13.30;80.70;;;;;;5115838;28;19924;-69
2020/12/19 10:51:13;;;;;;;;;;;12.90;81.80;;;;;;5115451;28;19924;-69
2020/12/19 10:53:41;;;;;;;;;;;12.30;83.90;;;;;;5115402;28;19924;-69
2020/12/19 10:56:07;;;;;;;;;;;12.20;85.80;;;;;;5115321;28;19924;-69
2020/12/19 10:58:33;;;;;;;;;;;11.60;88.60;;;;;;5115753;28;19924;-70
2020/12/19 11:00:59;;;;;;;;;;;11.80;90.50;;;;;;5115351;28;20384;-70
2020/12/19 11:03:25;;;;;;;;;;;11.80;90.30;;;;;;5115231;28;19923;-69
2020/12/19 11:05:53;;;;;;;;;;;11.60;90.20;;;;;;5115384;28;19931;-69
2020/12/19 11:08:19;;;;;;;;;;;11.60;90.90;;;;;;5115230;28;20383;-69
2020/12/19 11:10:46;;;;;;;;;;;11.70;91.20;;;;;;5115408;28;19923;-70
2020/12/19 11:13:15;;;;;;;;;;;12.20;90.60;;;;;;5114998;28;20277;-69
2020/12/19 11:15:41;;;;;;;;;;;12.80;87.70;;;;;;5115184;28;19924;-70
2020/12/19 11:18:07;;;;;;;;;;;12.50;87.60;;;;;;5115304;28;19927;-70
2020/12/19 11:20:33;;;;;;;;;;;12.30;88.90;;;;;;5115652;28;19924;-70
2020/12/19 11:22:59;;;;;;;;;;;12.10;88.50;;;;;;5114845;28;19928;-70
2020/12/19 11:25:25;;;;;;;;;;;11.60;91.30;;;;;;5114918;28;19923;-70
2020/12/19 11:27:52;;;;;;;;;;;11.40;91.60;;;;;;5114950;28;20410;-70
2020/12/19 11:30:18;;;;;;;;;;;11.60;91.90;;;;;;5114827;28;19946;-70
2020/12/19 11:32:44;;;;;;;;;;;11.80;91.60;;;;;;5114788;28;20391;-70
2020/12/19 11:35:10;;;;;;;;;;;12.10;91.70;;;;;;5114843;28;19924;-70
2020/12/19 11:37:36;;;;;;;;;;;12.50;90.10;;;;;;5114582;28;19924;-70
2020/12/19 11:40:03;;;;;;;;;;;12.70;88.20;;;;;;5114347;28;20368;-70
2020/12/19 11:42:30;;;;;;;;;;;13.00;86.00;;;;;;5114440;28;19923;-69
2020/12/19 11:44:56;;;;;;;;;;;13.00;85.40;;;;;;5114517;27;19971;-70
2020/12/19 11:47:22;;;;;;;;;;;13.10;86.00;;;;;;5114581;28;19924;-69
2020/12/19 11:49:51;;;;;;;;;;;13.20;83.40;;;;;;5114430;28;19938;-69
2020/12/19 11:52:17;;;;;;;;;;;13.40;82.20;;;;;;5114149;28;19993;-69
2020/12/19 11:54:43;;;;;;;;;;;13.30;82.50;;;;;;5114572;28;19923;-70
2020/12/19 11:57:09;;;;;;;;;;;12.60;85.10;;;;;;5114661;28;19945;-70
2020/12/19 11:59:35;;;;;;;;;;;12.10;88.90;;;;;;5114392;28;20392;-70
2020/12/19 12:02:03;;;;;;;;;;;12.00;90.00;;;;;;5114398;28;19931;-69
2020/12/19 12:04:29;;;;;;;;;;;12.20;90.10;;;;;;5114293;28;19924;-69
2020/12/19 12:06:55;;;;;;;;;;;12.30;89.70;;;;;;5114214;28;20380;-69
2020/12/19 12:09:21;;;;;;;;;;;12.60;88.50;;;;;;5114312;28;19946;-69
2020/12/19 12:11:47;;;;;;;;;;;12.10;90.00;;;;;;5114105;28;19924;-70
2020/12/19 12:14:13;;;;;;;;;;;12.10;90.80;;;;;;5113804;28;20411;-69
2020/12/19 12:16:39;;;;;;;;;;;12.30;90.30;;;;;;5114029;28;19924;-70
2020/12/19 12:19:06;;;;;;;;;;;12.40;90.40;;;;;;5113999;28;20338;-70
2020/12/19 12:21:35;;;;;;;;;;;12.90;88.90;;;;;;5113672;28;19924;-70
2020/12/19 12:24:01;;;;;;;;;;;13.20;86.50;;;;;;5113781;28;19931;-70
2020/12/19 12:26:27;;;;;;;;;;;12.90;86.00;;;;;;5113875;28;20392;-70
2020/12/19 12:28:53;;;;;;;;;;;13.10;86.50;;;;;;5113951;28;19930;-70
2020/12/19 12:31:20;;;;;;;;;;;13.10;85.90;;;;;;5113601;28;19993;-70
2020/12/19 12:33:46;;;;;;;;;;;12.90;86.00;;;;;;5113424;28;19974;-70
2020/12/19 12:36:13;;;;;;;;;;;12.30;88.60;;;;;;5112984;28;19928;-70
2020/12/19 12:38:39;;;;;;;;;;;12.70;89.00;;;;;;5113672;28;19923;-70
2020/12/19 12:41:05;;;;;;;;;;;12.20;89.20;;;;;;5113453;28;20295;-70
2020/12/19 12:43:31;;;;;;;;;;;11.90;91.30;;;;;;5113021;28;19924;-70
2020/12/19 12:45:58;;;;;;;;;;;11.70;92.00;;;;;;5113297;28;19924;-70
2020/12/19 12:48:24;;;;;;;;;;;11.40;92.70;;;;;;5113640;28;20114;-69
2020/12/19 12:50:49;;;;;;;;;;;11.30;94.10;;;;;;5113096;28;19924;-70
2020/12/19 12:53:16;;;;;;;;;;;11.10;95.00;;;;;;5113249;28;20334;-69
2020/12/19 12:55:42;;;;;;;;;;;11.10;96.20;;;;;;5113399;28;19932;-70
2020/12/19 12:58:08;;;;;;;;;;;11.20;95.50;;;;;;5113311;28;20380;-69
2020/12/19 13:00:34;;;;;;;;;;;11.20;95.60;;;;;;5113016;28;20445;-69
2020/12/19 13:03:00;;;;;;;;;;;11.20;95.40;;;;;;5113020;28;19923;-70
2020/12/19 13:05:26;;;;;;;;;;;10.60;97.70;;;;;;5112962;28;19924;-69
2020/12/19 13:07:52;;;;;;;;;;;10.70;98.90;;;;;;5113390;28;19930;-69
2020/12/19 13:10:22;;;;;;;;;;;11.00;98.30;;;;;;5112936;28;19930;-70
2020/12/19 13:12:51;;;;;;;;;;;11.30;96.00;;;;;;5112760;28;20299;-69
2020/12/19 13:15:20;;;;;;;;;;;11.30;95.30;;;;;;5112801;28;19924;-69
2020/12/19 13:17:46;;;;;;;;;;;10.80;97.20;;;;;;5112932;28;20437;-70
2020/12/19 13:20:12;;;;;;;;;;;10.80;98.10;;;;;;5113180;28;19923;-69
2020/12/19 13:22:41;;;;;;;;;;;11.10;97.80;;;;;;5112849;28;20010;-73
2020/12/19 13:25:07;;;;;;;;;;;11.00;97.00;;;;;;5112900;28;19923;-70
2020/12/19 13:27:36;;;;;;;;;;;10.40;99.20;;;;;;5112924;28;19977;-69
2020/12/19 13:30:03;;;;;;;;;;;9.90;99.90;;;;;;5112736;28;19931;-70
2020/12/19 13:32:31;;;;;;;;;;;9.70;99.90;;;;;;5112565;28;19924;-70
2020/12/19 13:34:58;;;;;;;;;;;9.60;99.90;;;;;;5112733;28;19923;-71
2020/12/19 13:37:23;;;;;;;;;;;9.40;99.90;;;;;;5112749;28;20316;-70
2020/12/19 13:39:53;;;;;;;;;;;9.10;99.90;;;;;;5112814;28;19930;-71
2020/12/19 13:42:19;;;;;;;;;;;9.00;99.90;;;;;;5112295;28;19924;-69
2020/12/19 13:44:49;;;;;;;;;;;8.80;99.90;;;;;;5112515;28;19923;-70
2020/12/19 13:47:15;;;;;;;;;;;8.60;99.90;;;;;;5112626;28;20376;-69
2020/12/19 13:49:44;;;;;;;;;;;8.20;99.90;;;;;;5114742;28;19923;-70
2020/12/19 13:52:10;;;;;;;;;;;8.10;99.90;;;;;;5116606;28;19930;-70
2020/12/19 13:54:39;;;;;;;;;;;7.70;99.90;;;;;;5116730;28;19924;-71
2020/12/19 13:57:05;;;;;;;;;;;7.50;99.90;;;;;;5116753;28;19928;-71
2020/12/19 13:59:33;;;;;;;;;;;7.20;99.90;;;;;;5116706;28;19923;-72
2020/12/19 14:02:03;;;;;;;;;;;7.20;99.90;;;;;;5116875;28;20311;-70
2020/12/19 14:04:32;;;;;;;;;;;7.10;99.90;;;;;;5116591;28;19924;-71
2020/12/19 14:07:00;;;;;;;;;;;7.00;99.90;;;;;;5116543;28;19924;-71
2020/12/19 14:09:26;;;;;;;;;;;6.80;99.90;;;;;;5116520;28;19976;-69
2020/12/19 14:11:52;;;;;;;;;;;6.60;99.90;;;;;;5116415;28;19927;-70
2020/12/19 14:14:18;;;;;;;;;;;6.60;99.90;;;;;;5116552;28;19928;-71
2020/12/19 14:16:47;;;;;;;;;;;6.50;99.90;;;;;;5116703;28;19930;-72
2020/12/19 14:19:14;;;;;;;;;;;6.40;99.90;;;;;;5116485;28;20438;-70
2020/12/19 14:21:43;;;;;;;;;;;6.40;99.90;;;;;;5116339;28;19923;-71